Time;durP1;ratioP1;P1;durP2;ratioP2;P2;SDS_P1;SDS_P2;PMS_P1;PMS_P2;Temp;Humidity;BMP_temperature;BMP_pressure;BME280_temperature;BME280_humidity;BME280_pressure;Samples;Min_cycle;Max_cycle;Signal;HPM_P1;HPM_P2
2021/08/20 00:01:17;;;;;;;;;;;;;;;18.91;67.31;98196.16;1663171;85;20317;-88
2021/08/20 00:03:46;;;;;;;;;;;;;;;18.89;67.35;98196.31;1663428;84;22011;-88
2021/08/20 00:06:12;;;;;;;;;;;;;;;18.88;67.37;98199.95;1659872;85;21028;-88
2021/08/20 00:08:38;;;;;;;;;;;;;;;18.90;67.40;98198.48;1687251;84;24517;-86
2021/08/20 00:11:06;;;;;;;;;;;;;;;18.86;67.41;98199.80;1703492;83;20287;-86
2021/08/20 00:13:33;;;;;;;;;;;;;;;18.87;67.46;98200.14;1664118;84;25071;-86
2021/08/20 00:15:59;;;;;;;;;;;;;;;18.86;67.48;98197.98;1657143;85;21896;-86
2021/08/20 00:18:25;;;;;;;;;;;;;;;18.85;67.51;98199.47;1660763;85;26048;-86
2021/08/20 00:20:52;;;;;;;;;;;;;;;18.82;67.50;98201.14;1679977;85;24485;-86
2021/08/20 00:23:18;;;;;;;;;;;;;;;18.80;67.57;98198.15;1693221;83;20599;-85
2021/08/20 00:25:44;;;;;;;;;;;;;;;18.83;67.61;98204.09;1692579;84;24992;-85
2021/08/20 00:28:10;;;;;;;;;;;;;;;18.82;67.62;98202.46;1690987;84;22059;-85
2021/08/20 00:30:37;;;;;;;;;;;;;;;18.77;67.62;98193.65;1691135;84;25988;-85
2021/08/20 00:33:03;;;;;;;;;;;;;;;18.77;67.65;98198.45;1693672;84;24488;-85
2021/08/20 00:35:29;;;;;;;;;;;;;;;18.76;67.71;98200.77;1693529;84;20243;-85
2021/08/20 00:37:55;;;;;;;;;;;;;;;18.73;67.73;98203.77;1678240;85;20227;-85
2021/08/20 00:40:23;;;;;;;;;;;;;;;18.70;67.81;98202.78;1644070;85;20295;-85
2021/08/20 00:42:49;;;;;;;;;;;;;;;18.68;67.87;98199.45;1681607;83;26023;-85
2021/08/20 00:45:18;;;;;;;;;;;;;;;18.69;67.89;98195.81;1674014;85;24466;-85
2021/08/20 00:47:44;;;;;;;;;;;;;;;18.75;67.94;98198.30;1671167;85;20220;-86
2021/08/20 00:50:10;;;;;;;;;;;;;;;18.76;68.00;98199.97;1650379;85;20796;-86
2021/08/20 00:52:36;;;;;;;;;;;;;;;18.76;68.04;98194.67;1694367;83;22165;-86
2021/08/20 00:55:03;;;;;;;;;;;;;;;18.74;68.05;98198.80;1692347;83;26006;-87
2021/08/20 00:57:31;;;;;;;;;;;;;;;18.71;68.09;98201.77;1681760;84;20290;-86
2021/08/20 00:59:57;;;;;;;;;;;;;;;18.68;68.14;98198.12;1665990;84;20327;-86
2021/08/20 01:02:25;;;;;;;;;;;;;;;18.63;68.17;98196.47;1669194;84;20872;-87
2021/08/20 01:04:51;;;;;;;;;;;;;;;18.61;68.18;98198.93;1682738;83;22060;-86
2021/08/20 01:07:28;;;;;;;;;;;;;;;18.61;68.19;98196.28;1653985;85;26050;-86
2021/08/20 01:09:54;;;;;;;;;;;;;;;18.65;68.19;98196.31;1680322;85;24751;-85
2021/08/20 01:12:20;;;;;;;;;;;;;;;18.66;68.20;98201.42;1656490;85;20292;-86
2021/08/20 01:14:48;;;;;;;;;;;;;;;18.61;68.19;98204.23;1681761;83;25058;-86
2021/08/20 01:17:15;;;;;;;;;;;;;;;18.57;68.18;98197.12;1681813;84;22098;-86
2021/08/20 01:19:41;;;;;;;;;;;;;;;18.55;68.18;98198.25;1679265;85;25969;-85
2021/08/20 01:22:11;;;;;;;;;;;;;;;18.55;68.19;98195.11;1689848;83;24395;-85
2021/08/20 01:24:39;;;;;;;;;;;;;;;18.59;68.20;98196.95;1677835;84;20291;-87
2021/08/20 01:27:05;;;;;;;;;;;;;;;18.56;68.20;98194.13;1663520;85;25063;-86
2021/08/20 01:29:32;;;;;;;;;;;;;;;18.56;68.20;98191.48;1662180;84;22029;-86
2021/08/20 01:31:58;;;;;;;;;;;;;;;18.53;68.17;98191.78;1680961;84;25957;-86
2021/08/20 01:34:24;;;;;;;;;;;;;;;18.52;68.20;98190.12;1662073;85;25281;-86
2021/08/20 01:36:50;;;;;;;;;;;;;;;18.51;68.23;98192.92;1661390;85;20230;-86
2021/08/20 01:39:16;;;;;;;;;;;;;;;18.49;68.27;98190.46;1666229;85;20252;-86
2021/08/20 01:41:42;;;;;;;;;;;;;;;18.53;68.30;98189.63;1666302;85;21929;-86
2021/08/20 01:44:14;;;;;;;;;;;;;;;18.55;68.32;98193.78;1675084;85;26139;-86
2021/08/20 01:46:40;;;;;;;;;;;;;;;18.53;68.35;98189.13;1681751;85;24474;-87
2021/08/20 01:49:07;;;;;;;;;;;;;;;18.56;68.38;98184.84;1694952;84;20491;-87
2021/08/20 01:51:33;;;;;;;;;;;;;;;18.63;68.41;98190.33;1690099;84;25033;-87
2021/08/20 01:54:02;;;;;;;;;;;;;;;18.66;68.42;98193.97;1685472;84;22141;-86
2021/08/20 01:56:30;;;;;;;;;;;;;;;18.63;68.42;98189.01;1690992;83;26269;-87
2021/08/20 01:58:57;;;;;;;;;;;;;;;18.63;68.46;98190.33;1681188;84;24471;-87
2021/08/20 02:01:23;;;;;;;;;;;;;;;18.67;68.46;98191.66;1676748;85;20209;-86
2021/08/20 02:03:49;;;;;;;;;;;;;;;18.68;68.44;98190.67;1688186;84;25676;-86
2021/08/20 02:06:15;;;;;;;;;;;;;;;18.69;68.41;98198.95;1656520;86;22052;-85
2021/08/20 02:08:41;;;;;;;;;;;;;;;18.67;68.43;98185.86;1663887;85;25980;-85
2021/08/20 02:11:07;;;;;;;;;;;;;;;18.60;68.40;98190.67;1665326;84;24422;-85
2021/08/20 02:13:33;;;;;;;;;;;;;;;18.55;68.40;98192.46;1664597;85;20210;-85
2021/08/20 02:15:59;;;;;;;;;;;;;;;18.51;68.43;98188.45;1663086;85;20288;-84
2021/08/20 02:18:26;;;;;;;;;;;;;;;18.48;68.42;98191.45;1662586;85;22080;-84
2021/08/20 02:20:52;;;;;;;;;;;;;;;18.48;68.47;98187.47;1663135;85;26085;-85
2021/08/20 02:23:18;;;;;;;;;;;;;;;18.47;68.49;98179.18;1678736;83;20297;-85
2021/08/20 02:25:53;;;;;;;;;;;;;;;18.46;68.54;98185.95;1669104;85;20229;-85
2021/08/20 02:28:19;;;;;;;;;;;;;;;18.41;68.57;98185.13;1646841;85;24987;-84
2021/08/20 02:30:45;;;;;;;;;;;;;;;18.38;68.60;98190.77;1682478;83;21972;-84
2021/08/20 02:33:18;;;;;;;;;;;;;;;18.36;68.64;98182.97;1683627;83;26169;-84
2021/08/20 02:35:49;;;;;;;;;;;;;;;18.36;68.67;98173.70;1669196;84;24518;-85
2021/08/20 02:38:15;;;;;;;;;;;;;;;18.35;68.71;98179.98;1650562;85;20279;-85
2021/08/20 02:40:41;;;;;;;;;;;;;;;18.35;68.73;98176.50;1685404;84;20333;-85
2021/08/20 02:43:13;;;;;;;;;;;;;;;18.32;68.74;98178.16;1651811;85;21939;-85
2021/08/20 02:45:39;;;;;;;;;;;;;;;18.33;68.78;98184.59;1673549;85;26002;-84
2021/08/20 02:48:11;;;;;;;;;;;;;;;18.33;68.80;98182.44;1669327;85;24442;-84
2021/08/20 02:50:39;;;;;;;;;;;;;;;18.34;68.86;98180.97;1663761;85;20317;-84
2021/08/20 02:53:05;;;;;;;;;;;;;;;18.35;68.89;98179.98;1661348;85;25032;-84
2021/08/20 02:55:33;;;;;;;;;;;;;;;18.37;68.94;98187.77;1663958;85;22629;-84
2021/08/20 02:57:59;;;;;;;;;;;;;;;18.36;68.96;98175.02;1668029;84;26254;-85
2021/08/20 03:00:25;;;;;;;;;;;;;;;18.34;68.98;98174.34;1659016;84;24376;-86
2021/08/20 03:02:51;;;;;;;;;;;;;;;18.32;68.99;98176.84;1677780;84;20605;-85
2021/08/20 03:05:19;;;;;;;;;;;;;;;18.33;69.04;98177.97;1692314;83;25124;-86
2021/08/20 03:07:45;;;;;;;;;;;;;;;18.32;69.07;98177.67;1682218;84;22004;-86
2021/08/20 03:10:14;;;;;;;;;;;;;;;18.32;69.11;98180.81;1655066;85;21754;-85
2021/08/20 03:12:40;;;;;;;;;;;;;;;18.32;69.13;98180.81;1654021;85;24549;-85
2021/08/20 03:15:09;;;;;;;;;;;;;;;18.33;69.15;98187.25;1640414;85;20544;-85
2021/08/20 03:17:38;;;;;;;;;;;;;;;18.32;69.19;98189.59;1656789;85;25025;-86
2021/08/20 03:20:07;;;;;;;;;;;;;;;18.33;69.22;98188.58;1676123;84;22250;-85
2021/08/20 03:22:33;;;;;;;;;;;;;;;18.32;69.26;98196.70;1698545;84;25998;-86
2021/08/20 03:24:59;;;;;;;;;;;;;;;18.30;69.29;98196.03;1665665;85;24476;-86
2021/08/20 03:27:31;;;;;;;;;;;;;;;18.28;69.31;98198.00;1677939;84;20313;-85
2021/08/20 03:30:04;;;;;;;;;;;;;;;18.20;69.32;98184.74;1662702;84;25033;-85
2021/08/20 03:32:30;;;;;;;;;;;;;;;18.32;69.36;98199.36;1672297;84;22156;-86
2021/08/20 03:34:56;;;;;;;;;;;;;;;18.34;69.37;98192.05;1644937;85;25975;-85
2021/08/20 03:37:23;;;;;;;;;;;;;;;18.38;69.41;98197.39;1675923;84;20789;-85
2021/08/20 03:39:51;;;;;;;;;;;;;;;18.34;69.43;98193.38;1652095;84;20850;-83
2021/08/20 03:42:17;;;;;;;;;;;;;;;18.29;69.44;98197.84;1657234;85;25036;-83
2021/08/20 03:44:46;;;;;;;;;;;;;;;18.29;69.43;98198.33;1672763;84;22019;-83
2021/08/20 03:47:12;;;;;;;;;;;;;;;18.31;69.49;98194.55;1684416;84;26702;-83
2021/08/20 03:49:38;;;;;;;;;;;;;;;18.33;69.50;98197.84;1680373;83;21223;-83
2021/08/20 03:52:10;;;;;;;;;;;;;;;18.33;69.54;98195.69;1682718;84;20854;-83
2021/08/20 03:54:36;;;;;;;;;;;;;;;18.34;69.58;98200.00;1668409;85;24959;-83
2021/08/20 03:57:02;;;;;;;;;;;;;;;18.33;69.57;98206.29;1683542;84;20308;-83
2021/08/20 04:10:01;;;;;;;;;;;;;;;18.41;69.68;98201.02;1781521;79;20221;-85
2021/08/20 04:12:27;;;;;;;;;;;;;;;18.34;69.71;98197.36;1772470;80;22036;-85
2021/08/20 04:14:53;;;;;;;;;;;;;;;18.32;69.69;98200.68;1780714;80;20984;-85
2021/08/20 04:17:20;;;;;;;;;;;;;;;18.33;69.73;98200.98;1773931;80;24521;-85
2021/08/20 04:19:46;;;;;;;;;;;;;;;18.34;69.78;98203.98;1773441;80;20125;-85
2021/08/20 04:22:12;;;;;;;;;;;;;;;18.34;69.80;98203.48;1798317;79;20223;-84
2021/08/20 04:24:38;;;;;;;;;;;;;;;18.35;69.81;98202.50;1790287;79;21968;-84
2021/08/20 04:27:04;;;;;;;;;;;;;;;18.31;69.81;98209.61;1761675;80;25934;-84
2021/08/20 04:29:30;;;;;;;;;;;;;;;18.33;69.86;98209.77;1797911;79;24745;-87
2021/08/20 04:31:58;;;;;;;;;;;;;;;18.37;69.89;98212.95;1802405;79;20289;-86
2021/08/20 04:34:25;;;;;;;;;;;;;;;18.39;69.92;98205.16;1771533;79;25117;-87
2021/08/20 04:36:51;;;;;;;;;;;;;;;18.42;69.96;98206.66;1764138;80;22062;-86
2021/08/20 04:39:17;;;;;;;;;;;;;;;18.39;69.97;98207.80;1767284;80;26230;-86
2021/08/20 04:41:43;;;;;;;;;;;;;;;18.41;70.02;98208.97;1797263;79;24480;-87
2021/08/20 04:44:09;;;;;;;;;;;;;;;18.40;70.09;98205.49;1749894;81;20472;-87
2021/08/20 04:46:37;;;;;;;;;;;;;;;18.44;70.15;98206.51;1776743;80;24965;-87
2021/08/20 04:49:03;;;;;;;;;;;;;;;18.48;70.22;98205.19;1774979;80;22086;-86
2021/08/20 04:51:36;;;;;;;;;;;;;;;18.48;70.25;98211.32;1764918;80;26672;-86
2021/08/20 04:54:05;;;;;;;;;;;;;;;18.48;70.31;98207.84;1765159;80;24448;-87
2021/08/20 04:56:37;;;;;;;;;;;;;;;18.48;70.33;98207.34;1767664;80;20296;-86
2021/08/20 04:59:03;;;;;;;;;;;;;;;18.50;70.39;98204.52;1749900;80;24189;-87
2021/08/20 05:01:29;;;;;;;;;;;;;;;18.51;70.42;98204.36;1758529;80;21946;-87
2021/08/20 05:03:56;;;;;;;;;;;;;;;18.52;70.46;98207.34;1795870;79;21086;-87
2021/08/20 05:06:22;;;;;;;;;;;;;;;18.53;70.46;98208.18;1794918;79;24524;-87
2021/08/20 05:08:48;;;;;;;;;;;;;;;18.53;70.47;98206.85;1765534;80;20889;-87
2021/08/20 05:11:14;;;;;;;;;;;;;;;18.55;70.52;98207.53;1729738;82;20342;-87
2021/08/20 05:13:40;;;;;;;;;;;;;;;18.59;70.54;98211.05;1785497;79;21963;-87
2021/08/20 05:16:06;;;;;;;;;;;;;;;18.67;70.57;98209.72;1744694;81;26298;-87
2021/08/20 05:18:36;;;;;;;;;;;;;;;18.72;70.58;98216.68;1747331;79;24592;-87
2021/08/20 05:21:02;;;;;;;;;;;;;;;18.74;70.61;98212.06;1787807;79;20357;-86
2021/08/20 05:23:28;;;;;;;;;;;;;;;18.73;70.63;98207.73;1789279;79;20244;-86
2021/08/20 05:25:54;;;;;;;;;;;;;;;18.73;70.62;98203.77;1790425;79;20352;-86
2021/08/20 05:28:20;;;;;;;;;;;;;;;18.76;70.66;98210.05;1787970;78;26095;-86
2021/08/20 05:30:52;;;;;;;;;;;;;;;18.85;70.69;98207.42;1790644;79;25474;-87
2021/08/20 05:33:18;;;;;;;;;;;;;;;18.87;70.69;98209.42;1791875;79;20454;-87
2021/08/20 05:35:46;;;;;;;;;;;;;;;18.90;70.71;98213.06;1786034;79;20278;-87
2021/08/20 05:38:14;;;;;;;;;;;;;;;18.92;70.75;98212.41;1781164;79;22041;-86
2021/08/20 05:40:40;;;;;;;;;;;;;;;18.93;70.77;98212.22;1787937;79;25989;-85
2021/08/20 05:43:06;;;;;;;;;;;;;;;18.94;70.78;98215.21;1786609;79;24430;-85
2021/08/20 05:45:36;;;;;;;;;;;;;;;18.91;70.79;98216.05;1787440;79;20268;-85
2021/08/20 05:47:59;;;;;;;;;;;;;;;18.91;70.77;98217.37;1783635;79;25068;-84
2021/08/20 05:50:31;;;;;;;;;;;;;;;18.95;70.81;98218.20;1787521;79;20267;-85
2021/08/20 05:52:57;;;;;;;;;;;;;;;18.99;70.81;98220.02;1777530;79;25789;-86
2021/08/20 05:55:25;;;;;;;;;;;;;;;19.00;70.84;98222.52;1785810;79;20839;-85
2021/08/20 05:57:54;;;;;;;;;;;;;;;19.00;70.84;98218.53;1744158;80;20159;-85
2021/08/20 06:00:20;;;;;;;;;;;;;;;19.05;70.86;98223.34;1759765;81;24337;-86
2021/08/20 06:02:50;;;;;;;;;;;;;;;19.10;70.90;98221.84;1751295;79;20316;-85
2021/08/20 06:05:20;;;;;;;;;;;;;;;19.15;70.92;98229.30;1777946;80;26954;-85
2021/08/20 06:07:46;;;;;;;;;;;;;;;19.13;70.96;98229.98;1771687;80;24495;-86
2021/08/20 06:10:14;;;;;;;;;;;;;;;19.15;71.00;98229.30;1769904;80;20933;-86
2021/08/20 06:12:41;;;;;;;;;;;;;;;19.14;71.01;98227.17;1778251;79;24435;-86
2021/08/20 06:15:07;;;;;;;;;;;;;;;19.15;71.01;98227.48;1772879;80;22096;-87
2021/08/20 06:17:33;;;;;;;;;;;;;;;19.18;70.99;98227.66;1781696;79;26017;-86
2021/08/20 06:20:04;;;;;;;;;;;;;;;19.26;70.96;98233.44;1767924;80;24547;-87
2021/08/20 06:22:30;;;;;;;;;;;;;;;19.31;70.97;98228.49;1778680;80;20266;-87
2021/08/20 06:24:56;;;;;;;;;;;;;;;19.39;70.98;98228.47;1781465;80;24345;-85
2021/08/20 06:27:25;;;;;;;;;;;;;;;19.46;70.96;98229.50;1782707;79;20845;-85
2021/08/20 06:29:51;;;;;;;;;;;;;;;19.45;70.90;98221.20;1781555;79;26958;-85
2021/08/20 06:32:17;;;;;;;;;;;;;;;19.46;70.85;98222.38;1778292;79;20300;-84
2021/08/20 06:34:43;;;;;;;;;;;;;;;19.52;70.87;98224.84;1783964;79;20314;-85
2021/08/20 06:37:09;;;;;;;;;;;;;;;19.57;70.91;98221.19;1773439;79;20792;-85
2021/08/20 06:39:36;;;;;;;;;;;;;;;19.62;70.86;98219.69;1777968;80;22053;-84
2021/08/20 06:42:02;;;;;;;;;;;;;;;19.66;70.84;98212.70;1779214;80;26031;-85
2021/08/20 06:44:29;;;;;;;;;;;;;;;19.73;70.84;98224.30;1771354;80;24462;-85
2021/08/20 06:46:58;;;;;;;;;;;;;;;19.81;70.82;98222.44;1775512;80;20514;-85
2021/08/20 06:49:24;;;;;;;;;;;;;;;19.92;70.75;98224.73;1772754;80;24385;-85
2021/08/20 06:51:50;;;;;;;;;;;;;;;19.99;70.68;98228.37;1771724;80;20651;-87
2021/08/20 06:54:16;;;;;;;;;;;;;;;20.00;70.56;98226.05;1779088;79;20982;-87
2021/08/20 06:56:42;;;;;;;;;;;;;;;20.04;70.46;98231.34;1783227;80;24408;-86
2021/08/20 06:59:08;;;;;;;;;;;;;;;20.13;70.38;98235.31;1779079;79;20499;-87
2021/08/20 07:01:34;;;;;;;;;;;;;;;20.22;70.34;98239.08;1758713;81;20247;-86
2021/08/20 07:04:00;;;;;;;;;;;;;;;20.28;70.28;98236.23;1780100;80;21967;-86
2021/08/20 07:06:27;;;;;;;;;;;;;;;20.34;70.28;98237.73;1780394;80;26064;-87
2021/08/20 07:08:53;;;;;;;;;;;;;;;20.37;70.25;98233.39;1772728;79;24677;-87
2021/08/20 07:11:20;;;;;;;;;;;;;;;20.38;70.08;98235.05;1773328;79;20190;-87
2021/08/20 07:13:46;;;;;;;;;;;;;;;20.40;69.95;98239.67;1781003;79;24260;-87
2021/08/20 07:16:12;;;;;;;;;;;;;;;20.43;69.88;98243.33;1772123;80;20410;-87
2021/08/20 07:18:38;;;;;;;;;;;;;;;20.46;69.76;98244.30;1781984;79;25975;-87
2021/08/20 07:21:13;;;;;;;;;;;;;;;20.50;69.64;98245.30;1757443;81;24658;-87
2021/08/20 07:23:39;;;;;;;;;;;;;;;20.57;69.53;98240.91;1785319;80;20232;-87
2021/08/20 07:26:06;;;;;;;;;;;;;;;20.65;69.45;98240.89;1780065;80;24282;-86
2021/08/20 07:28:32;;;;;;;;;;;;;;;20.65;69.36;98240.39;1754591;81;22072;-86
2021/08/20 07:31:00;;;;;;;;;;;;;;;20.71;69.26;98238.86;1776494;79;25971;-86
2021/08/20 07:33:26;;;;;;;;;;;;;;;20.75;69.17;98243.64;1780185;80;24452;-86
2021/08/20 07:35:53;;;;;;;;;;;;;;;20.82;69.06;98250.42;1776670;79;20590;-88
2021/08/20 07:38:22;;;;;;;;;;;;;;;20.87;69.02;98248.06;1779576;80;23916;-88
2021/08/20 07:40:48;;;;;;;;;;;;;;;20.89;68.87;98252.72;1783268;80;21808;-88
2021/08/20 07:43:20;;;;;;;;;;;;;;;20.93;68.79;98245.20;1785696;80;25942;-88
2021/08/20 07:45:46;;;;;;;;;;;;;;;20.97;68.74;98252.64;1782282;80;24668;-88
2021/08/20 07:48:12;;;;;;;;;;;;;;;21.02;68.61;98258.26;1778269;79;20881;-89
2021/08/20 07:50:40;;;;;;;;;;;;;;;21.07;68.54;98256.39;1755971;81;24328;-88
2021/08/20 07:53:09;;;;;;;;;;;;;;;21.11;68.49;98257.19;1784560;80;22677;-89
2021/08/20 07:55:38;;;;;;;;;;;;;;;21.19;68.44;98260.33;1757330;81;26218;-88
2021/08/20 07:58:04;;;;;;;;;;;;;;;21.24;68.37;98261.95;1760711;81;24715;-89
2021/08/20 08:00:31;;;;;;;;;;;;;;;21.35;68.29;98258.04;1786616;80;20404;-88
2021/08/20 08:03:00;;;;;;;;;;;;;;;21.37;68.18;98257.36;1754251;81;24357;-89
2021/08/20 08:05:26;;;;;;;;;;;;;;;21.44;68.17;98255.11;1757202;81;22039;-88
2021/08/20 08:07:54;;;;;;;;;;;;;;;21.54;68.14;98257.05;1751206;80;26222;-89
2021/08/20 08:10:21;;;;;;;;;;;;;;;21.68;68.13;98260.73;1731620;80;23900;-88
2021/08/20 08:12:51;;;;;;;;;;;;;;;21.77;68.00;98258.30;1772874;79;20217;-88
2021/08/20 08:15:18;;;;;;;;;;;;;;;21.93;67.84;98267.45;1758579;80;24535;-89
2021/08/20 08:17:45;;;;;;;;;;;;;;;22.02;67.61;98263.74;1787502;79;22703;-89
2021/08/20 08:20:12;;;;;;;;;;;;;;;22.08;67.40;98260.85;1785881;79;26801;-89
2021/08/20 08:22:38;;;;;;;;;;;;;;;22.10;67.24;98262.81;1790023;79;24392;-86
2021/08/20 08:25:05;;;;;;;;;;;;;;;22.15;67.08;98264.95;1769464;79;20494;-86
2021/08/20 08:27:31;;;;;;;;;;;;;;;22.22;66.84;98268.50;1776347;80;24381;-86
2021/08/20 08:29:57;;;;;;;;;;;;;;;22.29;66.69;98257.44;1777513;80;21990;-86
2021/08/20 08:32:23;;;;;;;;;;;;;;;22.35;66.47;98263.36;1779040;80;25923;-87
2021/08/20 08:34:49;;;;;;;;;;;;;;;22.41;66.23;98265.28;1755125;80;24272;-87
2021/08/20 08:37:18;;;;;;;;;;;;;;;22.46;66.00;98269.55;1780532;79;20810;-86
2021/08/20 08:39:43;;;;;;;;;;;;;;;;;;1734637;81;24727;-87
2021/08/20 08:42:11;;;;;;;;;;;;;;;22.53;65.47;98273.94;1782666;79;20196;-87
2021/08/20 08:44:37;;;;;;;;;;;;;;;22.57;65.20;98274.41;1751845;81;26182;-89
2021/08/20 08:47:05;;;;;;;;;;;;;;;22.67;65.01;98267.44;1765792;80;20271;-89
2021/08/20 08:49:32;;;;;;;;;;;;;;;22.74;64.83;98265.21;1777841;80;20381;-87
2021/08/20 08:52:00;;;;;;;;;;;;;;;22.87;64.73;98270.67;1773754;80;24584;-87
2021/08/20 08:54:27;;;;;;;;;;;;;;;22.94;64.61;98264.91;1774460;80;21966;-86
2021/08/20 08:56:54;;;;;;;;;;;;;;;22.99;64.35;98263.50;1734391;81;25835;-86
2021/08/20 08:59:19;;;;;;;;;;;;;;;23.04;64.10;98267.77;1767395;80;24453;-86
2021/08/20 09:01:46;;;;;;;;;;;;;;;23.06;63.93;98268.41;1771618;80;20599;-86
2021/08/20 09:04:14;;;;;;;;;;;;;;;23.16;63.87;98271.08;1778847;80;24562;-87
2021/08/20 09:06:44;;;;;;;;;;;;;;;23.23;63.72;98265.81;1749123;81;21351;-86
2021/08/20 09:09:14;;;;;;;;;;;;;;;23.32;63.50;98267.33;1781494;79;25999;-87
2021/08/20 09:11:41;;;;;;;;;;;;;;;23.42;63.35;98273.16;1784461;79;25291;-87
2021/08/20 09:14:15;;;;;;;;;;;;;;;23.45;63.09;98274.64;1775250;80;20530;-87
2021/08/20 09:16:42;;;;;;;;;;;;;;;23.52;62.92;98271.02;1789985;79;24521;-87
2021/08/20 09:19:21;;;;;;;;;;;;;;;23.61;62.83;98281.07;1787610;79;21904;-87
2021/08/20 09:21:59;;;;;;;;;;;;;;;23.62;62.66;98275.52;1732130;82;26008;-86
2021/08/20 09:24:30;;;;;;;;;;;;;;;23.63;62.35;98277.67;1767381;80;24496;-87
2021/08/20 09:27:21;;;;;;;;;;;;;;;23.62;62.09;98274.17;1789432;79;20203;-87
2021/08/20 09:29:55;;;;;;;;;;;;;;;23.64;61.89;98273.99;1738161;81;24548;-86
2021/08/20 09:32:24;;;;;;;;;;;;;;;23.64;61.56;98280.16;1773186;80;21997;-86
2021/08/20 09:34:52;;;;;;;;;;;;;;;23.64;61.37;98273.48;1773997;80;26024;-85
2021/08/20 09:37:19;;;;;;;;;;;;;;;23.65;61.17;98272.98;1790653;79;24541;-86
2021/08/20 09:39:49;;;;;;;;;;;;;;;23.62;60.99;98271.50;1785677;79;20250;-86
2021/08/20 09:42:17;;;;;;;;;;;;;;;23.60;60.81;98274.90;1787460;79;24752;-86
2021/08/20 09:44:44;;;;;;;;;;;;;;;23.58;60.61;98271.58;1782123;79;21691;-86
2021/08/20 09:47:10;;;;;;;;;;;;;;;23.59;60.38;98276.42;1751311;81;26124;-86
2021/08/20 09:49:57;;;;;;;;;;;;;;;23.58;60.23;98276.09;1764117;81;24462;-87
2021/08/20 09:52:31;;;;;;;;;;;;;;;23.51;60.10;98269.36;1747656;81;20307;-87
2021/08/20 09:54:57;;;;;;;;;;;;;;;23.47;59.92;98268.61;1805859;79;24479;-86
2021/08/20 09:57:27;;;;;;;;;;;;;;;23.50;59.87;98274.41;1748038;81;21989;-86
2021/08/20 09:59:55;;;;;;;;;;;;;;;23.53;59.81;98266.50;1776469;80;26012;-86
2021/08/20 10:02:28;;;;;;;;;;;;;;;23.57;59.81;98262.41;1792892;79;24546;-87
2021/08/20 10:04:55;;;;;;;;;;;;;;;23.58;59.80;98262.73;1753306;80;20533;-86
2021/08/20 10:07:21;;;;;;;;;;;;;;;23.59;59.71;98259.05;1732805;81;25145;-87
2021/08/20 10:09:48;;;;;;;;;;;;;;;23.60;59.69;98263.37;1774042;80;21491;-87
2021/08/20 10:12:19;;;;;;;;;;;;;;;23.57;59.54;98264.58;1774404;80;26927;-87
2021/08/20 10:14:45;;;;;;;;;;;;;;;23.54;59.40;98258.30;1768073;80;25221;-87
2021/08/20 10:17:13;;;;;;;;;;;;;;;23.52;59.28;98258.99;1751429;81;20205;-87
2021/08/20 10:19:40;;;;;;;;;;;;;;;23.53;59.14;98259.31;1788347;79;25587;-87
2021/08/20 10:22:06;;;;;;;;;;;;;;;23.52;59.07;98254.98;1782307;79;22723;-87
2021/08/20 10:24:32;;;;;;;;;;;;;;;23.55;58.98;98258.63;1794005;79;26019;-87
2021/08/20 10:27:02;;;;;;;;;;;;;;;23.57;58.91;98259.23;1794889;79;24471;-87
2021/08/20 10:29:29;;;;;;;;;;;;;;;23.54;58.78;98256.14;1790795;79;20304;-87
2021/08/20 10:31:59;;;;;;;;;;;;;;;23.54;58.79;98254.30;1793689;78;24545;-87
2021/08/20 10:34:32;;;;;;;;;;;;;;;23.56;58.77;98256.78;1791102;79;22069;-87
2021/08/20 10:37:18;;;;;;;;;;;;;;;23.61;58.87;98248.50;1781279;79;25973;-87
2021/08/20 10:39:46;;;;;;;;;;;;;;;23.63;58.90;98250.45;1677143;84;24539;-87
2021/08/20 10:42:17;;;;;;;;;;;;;;;23.67;58.87;98250.40;1677561;84;20433;-87
2021/08/20 10:44:45;;;;;;;;;;;;;;;23.68;58.80;98244.52;1728548;79;24547;-87
2021/08/20 10:47:21;;;;;;;;;;;;;;;23.70;58.79;98247.33;1787229;79;21922;-87
2021/08/20 10:49:48;;;;;;;;;;;;;;;23.72;58.77;98240.45;1789402;78;26060;-88
2021/08/20 10:52:28;;;;;;;;;;;;;;;23.73;58.75;98244.25;1752269;81;24428;-86
2021/08/20 10:54:55;;;;;;;;;;;;;;;23.80;58.82;98246.97;1792043;79;20268;-86
2021/08/20 10:57:39;;;;;;;;;;;;;;;23.83;58.78;98245.77;1789723;79;25212;-86
2021/08/20 11:00:11;;;;;;;;;;;;;;;23.81;58.58;98241.95;1796560;79;21952;-87
2021/08/20 11:02:45;;;;;;;;;;;;;;;23.85;58.45;98245.05;1785970;79;26785;-87
2021/08/20 11:05:10;;;;;;;;;;;;;;;23.89;58.38;98244.99;1801472;79;24612;-86
2021/08/20 11:07:38;;;;;;;;;;;;;;;23.89;58.39;98240.47;1781893;79;20515;-87
2021/08/20 11:10:12;;;;;;;;;;;;;;;23.92;58.41;98243.25;1785065;79;24597;-86
2021/08/20 11:12:40;;;;;;;;;;;;;;;23.90;58.38;98243.44;1758102;81;22161;-86
2021/08/20 11:15:20;;;;;;;;;;;;;;;23.90;58.45;98238.09;1735188;81;26581;-87
2021/08/20 11:17:50;;;;;;;;;;;;;;;23.97;58.51;98248.83;1791572;79;24591;-86
2021/08/20 11:20:17;;;;;;;;;;;;;;;23.95;58.51;98241.00;1777192;79;20319;-87
2021/08/20 11:22:43;;;;;;;;;;;;;;;23.96;58.42;98241.83;1751933;81;24133;-87
2021/08/20 11:25:10;;;;;;;;;;;;;;;23.98;58.38;98243.80;1769842;79;22099;-87
2021/08/20 11:27:40;;;;;;;;;;;;;;;23.98;58.37;98242.47;1766297;80;25940;-87
2021/08/20 11:30:07;;;;;;;;;;;;;;;23.98;58.34;98237.12;1760024;80;25217;-86
2021/08/20 11:32:33;;;;;;;;;;;;;;;23.95;58.36;98245.01;1763543;80;20712;-87
2021/08/20 11:35:05;;;;;;;;;;;;;;;23.97;58.34;98242.14;1763098;80;24582;-87
2021/08/20 11:37:33;;;;;;;;;;;;;;;23.96;58.33;98251.18;1756246;80;21991;-87
2021/08/20 11:40:01;;;;;;;;;;;;;;;23.98;58.28;98246.48;1761353;80;26133;-87
2021/08/20 11:42:27;;;;;;;;;;;;;;;23.98;58.15;98245.97;1759041;80;24560;-86
2021/08/20 11:44:53;;;;;;;;;;;;;;;23.96;58.01;98241.32;1759462;80;20240;-86
2021/08/20 11:47:19;;;;;;;;;;;;;;;23.94;57.84;98245.23;1754763;80;20276;-86
2021/08/20 11:49:45;;;;;;;;;;;;;;;23.92;57.72;98247.26;1784528;79;20278;-87
2021/08/20 11:52:11;;;;;;;;;;;;;;;23.91;57.72;98245.09;1752169;79;21182;-87
2021/08/20 11:54:39;;;;;;;;;;;;;;;23.93;57.68;98244.40;1793344;79;24482;-89
2021/08/20 11:57:05;;;;;;;;;;;;;;;23.95;57.59;98246.34;1783951;79;20332;-90
2021/08/20 11:59:31;;;;;;;;;;;;;;;24.01;57.62;98246.90;1791809;79;24577;-89
2021/08/20 12:01:58;;;;;;;;;;;;;;;24.05;57.62;98244.17;1740852;81;21956;-92
2021/08/20 12:04:28;;;;;;;;;;;;;;;24.12;57.61;98241.00;1758620;81;26179;-91
2021/08/20 12:06:57;;;;;;;;;;;;;;;24.14;57.52;98238.13;1789163;79;24686;-91
2021/08/20 12:09:23;;;;;;;;;;;;;;;24.15;57.45;98241.13;1782387;79;20236;-92
2021/08/20 12:11:51;;;;;;;;;;;;;;;24.17;57.37;98246.61;1729895;82;24584;-90
2021/08/20 12:14:18;;;;;;;;;;;;;;;24.20;57.40;98240.56;1775553;80;22093;-92
2021/08/20 12:16:46;;;;;;;;;;;;;;;24.24;57.44;98233.78;1765986;80;26007;-91
2021/08/20 12:19:13;;;;;;;;;;;;;;;24.29;57.49;98235.34;1773388;80;24458;-91
2021/08/20 12:21:40;;;;;;;;;;;;;;;24.32;57.41;98234.97;1774038;80;20343;-91
2021/08/20 12:24:06;;;;;;;;;;;;;;;24.34;57.43;98232.91;1778591;80;24573;-91
2021/08/20 12:26:32;;;;;;;;;;;;;;;24.41;57.49;98227.08;1771363;80;22019;-91
2021/08/20 12:29:00;;;;;;;;;;;;;;;24.44;57.44;98229.34;1777696;80;26110;-91
2021/08/20 12:31:26;;;;;;;;;;;;;;;24.43;57.34;98228.54;1762658;80;24490;-90
2021/08/20 12:33:56;;;;;;;;;;;;;;;24.45;57.28;98226.47;1771459;79;20501;-90
2021/08/20 12:36:23;;;;;;;;;;;;;;;24.44;57.14;98224.81;1764371;81;24547;-90
2021/08/20 12:39:09;;;;;;;;;;;;;;;24.49;57.07;98228.25;1725080;81;20271;-89
2021/08/20 12:41:39;;;;;;;;;;;;;;;24.49;56.94;98226.38;1752464;81;23220;-90
2021/08/20 12:44:08;;;;;;;;;;;;;;;24.41;56.53;98221.22;1751662;80;24448;-90
2021/08/20 12:46:42;;;;;;;;;;;;;;;24.34;56.13;98224.87;1788311;79;20204;-90
2021/08/20 12:49:11;;;;;;;;;;;;;;;24.35;55.87;98218.00;1785844;78;25244;-90
2021/08/20 12:51:45;;;;;;;;;;;;;;;24.39;55.77;98213.89;1784936;79;22574;-90
2021/08/20 12:54:14;;;;;;;;;;;;;;;24.45;55.69;98222.45;1765106;79;27017;-86
2021/08/20 12:56:44;;;;;;;;;;;;;;;24.49;55.62;98221.56;1736267;81;20319;-86
2021/08/20 12:59:16;;;;;;;;;;;;;;;24.52;55.59;98215.28;1758212;81;20353;-86
2021/08/20 13:01:40;;;;;;;;;;;;;;;24.55;55.43;98215.38;1757467;79;24544;-86